sensor_id;sensor_type;location;lat;lon;timestamp;temperature;humidity
25953;DHT22;13750;50.804;8.764;2023-07-16T00:01:10;21.40;82.60
25953;DHT22;13750;50.804;8.764;2023-07-16T00:03:36;21.40;82.80
25953;DHT22;13750;50.804;8.764;2023-07-16T00:06:01;21.40;83.00
25953;DHT22;13750;50.804;8.764;2023-07-16T00:08:27;21.40;83.00
25953;DHT22;13750;50.804;8.764;2023-07-16T00:10:53;21.40;82.90
25953;DHT22;13750;50.804;8.764;2023-07-16T00:13:18;21.40;82.70
25953;DHT22;13750;50.804;8.764;2023-07-16T00:15:44;21.40;82.80
25953;DHT22;13750;50.804;8.764;2023-07-16T00:18:09;21.40;82.90
25953;DHT22;13750;50.804;8.764;2023-07-16T00:20:35;21.40;82.90
25953;DHT22;13750;50.804;8.764;2023-07-16T00:23:00;21.40;83.00
25953;DHT22;13750;50.804;8.764;2023-07-16T00:25:26;21.40;83.00
25953;DHT22;13750;50.804;8.764;2023-07-16T00:27:51;21.40;83.00
25953;DHT22;13750;50.804;8.764;2023-07-16T00:30:17;21.40;82.90
25953;DHT22;13750;50.804;8.764;2023-07-16T00:32:42;21.40;82.90
25953;DHT22;13750;50.804;8.764;2023-07-16T00:35:08;21.40;82.90
25953;DHT22;13750;50.804;8.764;2023-07-16T00:37:34;21.40;82.90
25953;DHT22;13750;50.804;8.764;2023-07-16T00:40:00;21.40;82.80
25953;DHT22;13750;50.804;8.764;2023-07-16T00:42:26;21.40;82.80
25953;DHT22;13750;50.804;8.764;2023-07-16T00:44:51;21.40;82.70
25953;DHT22;13750;50.804;8.764;2023-07-16T00:47:17;21.40;82.60
25953;DHT22;13750;50.804;8.764;2023-07-16T00:49:42;21.30;82.70
25953;DHT22;13750;50.804;8.764;2023-07-16T00:52:14;21.40;82.50
25953;DHT22;13750;50.804;8.764;2023-07-16T00:54:41;21.30;82.40
25953;DHT22;13750;50.804;8.764;2023-07-16T00:57:07;21.30;82.40
25953;DHT22;13750;50.804;8.764;2023-07-16T00:59:33;21.30;82.40
25953;DHT22;13750;50.804;8.764;2023-07-16T01:01:59;21.30;82.30
25953;DHT22;13750;50.804;8.764;2023-07-16T01:04:24;21.30;82.10
25953;DHT22;13750;50.804;8.764;2023-07-16T01:06:55;21.20;82.00
25953;DHT22;13750;50.804;8.764;2023-07-16T01:09:24;21.20;82.00
25953;DHT22;13750;50.804;8.764;2023-07-16T01:11:51;21.20;82.00
25953;DHT22;13750;50.804;8.764;2023-07-16T01:14:18;21.20;81.80
25953;DHT22;13750;50.804;8.764;2023-07-16T01:16:44;21.20;81.70
25953;DHT22;13750;50.804;8.764;2023-07-16T01:19:10;21.20;81.40
25953;DHT22;13750;50.804;8.764;2023-07-16T01:30:04;21.10;80.60
25953;DHT22;13750;50.804;8.764;2023-07-16T01:32:31;21.10;80.50
25953;DHT22;13750;50.804;8.764;2023-07-16T01:34:58;21.10;80.40
25953;DHT22;13750;50.804;8.764;2023-07-16T01:37:24;21.10;80.20
25953;DHT22;13750;50.804;8.764;2023-07-16T01:39:50;21.00;79.90
25953;DHT22;13750;50.804;8.764;2023-07-16T01:42:15;21.00;79.80
25953;DHT22;13750;50.804;8.764;2023-07-16T01:44:41;21.00;79.90
25953;DHT22;13750;50.804;8.764;2023-07-16T01:49:55;20.90;79.50
25953;DHT22;13750;50.804;8.764;2023-07-16T01:52:21;20.90;79.60
25953;DHT22;13750;50.804;8.764;2023-07-16T01:54:46;20.90;79.40
25953;DHT22;13750;50.804;8.764;2023-07-16T01:57:12;20.90;79.20
25953;DHT22;13750;50.804;8.764;2023-07-16T01:59:37;20.90;79.10
25953;DHT22;13750;50.804;8.764;2023-07-16T02:02:04;20.80;78.80
25953;DHT22;13750;50.804;8.764;2023-07-16T02:04:29;20.80;78.50
25953;DHT22;13750;50.804;8.764;2023-07-16T02:06:55;20.70;78.50
25953;DHT22;13750;50.804;8.764;2023-07-16T02:09:21;20.80;78.40
25953;DHT22;13750;50.804;8.764;2023-07-16T02:11:47;20.70;78.50
25953;DHT22;13750;50.804;8.764;2023-07-16T02:14:12;20.70;78.30
25953;DHT22;13750;50.804;8.764;2023-07-16T02:16:39;20.70;78.20
25953;DHT22;13750;50.804;8.764;2023-07-16T02:19:05;20.60;78.20
25953;DHT22;13750;50.804;8.764;2023-07-16T02:21:30;20.60;78.10
25953;DHT22;13750;50.804;8.764;2023-07-16T02:23:56;20.60;78.20
25953;DHT22;13750;50.804;8.764;2023-07-16T02:26:22;20.60;78.10
25953;DHT22;13750;50.804;8.764;2023-07-16T02:28:47;20.50;77.90
25953;DHT22;13750;50.804;8.764;2023-07-16T02:31:13;20.50;77.90
25953;DHT22;13750;50.804;8.764;2023-07-16T02:33:38;20.50;77.70
25953;DHT22;13750;50.804;8.764;2023-07-16T02:36:04;20.40;77.70
25953;DHT22;13750;50.804;8.764;2023-07-16T02:38:29;20.40;77.70
25953;DHT22;13750;50.804;8.764;2023-07-16T02:40:55;20.40;77.60
25953;DHT22;13750;50.804;8.764;2023-07-16T02:43:21;20.40;77.70
25953;DHT22;13750;50.804;8.764;2023-07-16T02:45:46;20.30;77.80
25953;DHT22;13750;50.804;8.764;2023-07-16T02:48:12;20.30;77.90
25953;DHT22;13750;50.804;8.764;2023-07-16T02:50:38;20.20;77.90
25953;DHT22;13750;50.804;8.764;2023-07-16T02:53:04;20.20;78.00
25953;DHT22;13750;50.804;8.764;2023-07-16T02:55:30;20.10;77.70
25953;DHT22;13750;50.804;8.764;2023-07-16T02:57:55;20.10;77.60
25953;DHT22;13750;50.804;8.764;2023-07-16T03:00:21;20.10;77.70
25953;DHT22;13750;50.804;8.764;2023-07-16T03:02:47;20.00;77.80
25953;DHT22;13750;50.804;8.764;2023-07-16T03:05:15;20.00;77.70
25953;DHT22;13750;50.804;8.764;2023-07-16T03:07:40;19.90;77.70
25953;DHT22;13750;50.804;8.764;2023-07-16T03:10:06;19.90;77.70
25953;DHT22;13750;50.804;8.764;2023-07-16T03:12:32;19.80;77.70
25953;DHT22;13750;50.804;8.764;2023-07-16T03:14:57;19.80;77.60
25953;DHT22;13750;50.804;8.764;2023-07-16T03:17:23;19.70;77.80
25953;DHT22;13750;50.804;8.764;2023-07-16T03:19:48;19.70;77.80
25953;DHT22;13750;50.804;8.764;2023-07-16T03:22:14;19.60;77.70
25953;DHT22;13750;50.804;8.764;2023-07-16T03:24:40;19.60;77.70
25953;DHT22;13750;50.804;8.764;2023-07-16T03:27:06;19.60;77.70
25953;DHT22;13750;50.804;8.764;2023-07-16T03:29:32;19.60;77.60
25953;DHT22;13750;50.804;8.764;2023-07-16T03:31:58;19.60;77.40
25953;DHT22;13750;50.804;8.764;2023-07-16T03:34:23;19.60;77.20
25953;DHT22;13750;50.804;8.764;2023-07-16T03:36:49;19.60;77.10
25953;DHT22;13750;50.804;8.764;2023-07-16T03:39:15;19.50;77.10
25953;DHT22;13750;50.804;8.764;2023-07-16T03:41:40;19.40;77.10
25953;DHT22;13750;50.804;8.764;2023-07-16T03:44:06;19.40;77.00
25953;DHT22;13750;50.804;8.764;2023-07-16T03:46:31;19.40;76.80
25953;DHT22;13750;50.804;8.764;2023-07-16T03:48:57;19.30;76.90
25953;DHT22;13750;50.804;8.764;2023-07-16T03:51:22;19.30;76.80
25953;DHT22;13750;50.804;8.764;2023-07-16T03:53:48;19.30;76.80
25953;DHT22;13750;50.804;8.764;2023-07-16T03:56:13;19.30;76.80
25953;DHT22;13750;50.804;8.764;2023-07-16T03:58:39;19.30;76.80
25953;DHT22;13750;50.804;8.764;2023-07-16T04:01:05;19.30;76.70
25953;DHT22;13750;50.804;8.764;2023-07-16T04:03:31;19.20;76.70
25953;DHT22;13750;50.804;8.764;2023-07-16T04:06:03;19.20;76.70
25953;DHT22;13750;50.804;8.764;2023-07-16T04:08:29;19.20;76.70
25953;DHT22;13750;50.804;8.764;2023-07-16T04:10:55;19.20;76.70
25953;DHT22;13750;50.804;8.764;2023-07-16T04:13:20;19.20;76.50
25953;DHT22;13750;50.804;8.764;2023-07-16T04:15:46;19.10;76.70
25953;DHT22;13750;50.804;8.764;2023-07-16T04:18:11;19.10;76.80
25953;DHT22;13750;50.804;8.764;2023-07-16T04:20:37;19.10;76.80
25953;DHT22;13750;50.804;8.764;2023-07-16T04:23:02;19.10;76.60
25953;DHT22;13750;50.804;8.764;2023-07-16T04:25:28;19.20;76.60
25953;DHT22;13750;50.804;8.764;2023-07-16T04:27:54;19.20;76.60
25953;DHT22;13750;50.804;8.764;2023-07-16T04:30:19;19.20;76.70
25953;DHT22;13750;50.804;8.764;2023-07-16T04:32:45;19.20;76.50
25953;DHT22;13750;50.804;8.764;2023-07-16T04:35:10;19.20;76.50
25953;DHT22;13750;50.804;8.764;2023-07-16T04:37:36;19.20;76.50
25953;DHT22;13750;50.804;8.764;2023-07-16T04:40:01;19.20;76.50
25953;DHT22;13750;50.804;8.764;2023-07-16T04:42:29;19.20;76.50
25953;DHT22;13750;50.804;8.764;2023-07-16T04:44:55;19.10;76.50
25953;DHT22;13750;50.804;8.764;2023-07-16T04:47:20;19.20;76.50
25953;DHT22;13750;50.804;8.764;2023-07-16T04:49:46;19.10;76.50
25953;DHT22;13750;50.804;8.764;2023-07-16T04:52:12;19.10;76.60
25953;DHT22;13750;50.804;8.764;2023-07-16T04:54:38;19.10;76.70
25953;DHT22;13750;50.804;8.764;2023-07-16T04:57:05;19.10;76.70
25953;DHT22;13750;50.804;8.764;2023-07-16T04:59:31;19.10;76.60
25953;DHT22;13750;50.804;8.764;2023-07-16T05:01:57;19.10;76.60
25953;DHT22;13750;50.804;8.764;2023-07-16T05:04:22;19.20;76.50
25953;DHT22;13750;50.804;8.764;2023-07-16T05:06:48;19.20;76.40
25953;DHT22;13750;50.804;8.764;2023-07-16T05:09:13;19.20;76.40
25953;DHT22;13750;50.804;8.764;2023-07-16T05:11:39;19.20;76.20
25953;DHT22;13750;50.804;8.764;2023-07-16T05:14:04;19.20;76.10
25953;DHT22;13750;50.804;8.764;2023-07-16T05:16:30;19.20;76.10
25953;DHT22;13750;50.804;8.764;2023-07-16T05:18:55;19.20;76.00
25953;DHT22;13750;50.804;8.764;2023-07-16T05:21:21;19.20;76.00
25953;DHT22;13750;50.804;8.764;2023-07-16T05:23:46;19.20;75.90
25953;DHT22;13750;50.804;8.764;2023-07-16T05:26:12;19.20;75.70
25953;DHT22;13750;50.804;8.764;2023-07-16T05:28:37;19.20;75.80
25953;DHT22;13750;50.804;8.764;2023-07-16T05:31:03;19.30;75.70
25953;DHT22;13750;50.804;8.764;2023-07-16T05:33:29;19.20;75.50
25953;DHT22;13750;50.804;8.764;2023-07-16T05:35:55;19.30;75.60
25953;DHT22;13750;50.804;8.764;2023-07-16T05:38:21;19.30;75.50
25953;DHT22;13750;50.804;8.764;2023-07-16T05:40:46;19.30;75.50
25953;DHT22;13750;50.804;8.764;2023-07-16T05:43:12;19.30;75.50
25953;DHT22;13750;50.804;8.764;2023-07-16T05:45:39;19.30;75.40
25953;DHT22;13750;50.804;8.764;2023-07-16T05:48:05;19.30;75.20
25953;DHT22;13750;50.804;8.764;2023-07-16T05:50:30;19.30;75.20
25953;DHT22;13750;50.804;8.764;2023-07-16T05:52:56;19.30;75.30
25953;DHT22;13750;50.804;8.764;2023-07-16T05:55:21;19.30;75.20
25953;DHT22;13750;50.804;8.764;2023-07-16T05:57:47;19.30;75.00
25953;DHT22;13750;50.804;8.764;2023-07-16T06:00:13;19.40;75.00
25953;DHT22;13750;50.804;8.764;2023-07-16T06:02:39;19.40;74.90
25953;DHT22;13750;50.804;8.764;2023-07-16T06:05:05;19.40;74.80
25953;DHT22;13750;50.804;8.764;2023-07-16T06:07:31;19.40;74.70
25953;DHT22;13750;50.804;8.764;2023-07-16T06:09:57;19.40;74.50
25953;DHT22;13750;50.804;8.764;2023-07-16T06:12:23;19.40;74.40
25953;DHT22;13750;50.804;8.764;2023-07-16T06:14:48;19.40;74.10
25953;DHT22;13750;50.804;8.764;2023-07-16T06:17:14;19.40;73.80
25953;DHT22;13750;50.804;8.764;2023-07-16T06:19:39;19.40;73.70
25953;DHT22;13750;50.804;8.764;2023-07-16T06:22:05;19.40;73.40
25953;DHT22;13750;50.804;8.764;2023-07-16T06:24:30;19.40;73.10
25953;DHT22;13750;50.804;8.764;2023-07-16T06:26:56;19.50;72.80
25953;DHT22;13750;50.804;8.764;2023-07-16T06:29:22;19.50;72.60
25953;DHT22;13750;50.804;8.764;2023-07-16T06:31:57;19.50;72.30
25953;DHT22;13750;50.804;8.764;2023-07-16T06:34:24;19.50;71.20
25953;DHT22;13750;50.804;8.764;2023-07-16T06:36:49;19.50;71.10
25953;DHT22;13750;50.804;8.764;2023-07-16T06:39:15;19.50;70.70
25953;DHT22;13750;50.804;8.764;2023-07-16T06:41:41;19.50;70.90
25953;DHT22;13750;50.804;8.764;2023-07-16T06:44:06;19.60;71.00
25953;DHT22;13750;50.804;8.764;2023-07-16T06:46:32;19.60;70.60
25953;DHT22;13750;50.804;8.764;2023-07-16T06:48:57;19.60;70.50
25953;DHT22;13750;50.804;8.764;2023-07-16T06:51:23;19.60;70.10
25953;DHT22;13750;50.804;8.764;2023-07-16T06:53:49;19.60;69.60
25953;DHT22;13750;50.804;8.764;2023-07-16T06:56:14;19.60;69.30
25953;DHT22;13750;50.804;8.764;2023-07-16T06:58:40;19.60;68.70
25953;DHT22;13750;50.804;8.764;2023-07-16T07:01:06;19.60;68.40
25953;DHT22;13750;50.804;8.764;2023-07-16T07:03:31;19.60;68.40
25953;DHT22;13750;50.804;8.764;2023-07-16T07:06:01;19.60;68.40
25953;DHT22;13750;50.804;8.764;2023-07-16T07:08:27;19.70;68.30
25953;DHT22;13750;50.804;8.764;2023-07-16T07:10:53;19.80;67.40
25953;DHT22;13750;50.804;8.764;2023-07-16T07:13:18;19.80;67.30
25953;DHT22;13750;50.804;8.764;2023-07-16T07:15:44;19.90;65.60
25953;DHT22;13750;50.804;8.764;2023-07-16T07:18:10;19.90;65.70
25953;DHT22;13750;50.804;8.764;2023-07-16T07:20:35;19.90;65.80
25953;DHT22;13750;50.804;8.764;2023-07-16T07:23:01;19.90;65.40
25953;DHT22;13750;50.804;8.764;2023-07-16T07:25:28;19.90;65.40
25953;DHT22;13750;50.804;8.764;2023-07-16T07:27:54;19.90;65.20
25953;DHT22;13750;50.804;8.764;2023-07-16T07:30:19;20.00;65.30
25953;DHT22;13750;50.804;8.764;2023-07-16T07:32:45;20.00;65.20
25953;DHT22;13750;50.804;8.764;2023-07-16T07:35:11;20.10;64.80
25953;DHT22;13750;50.804;8.764;2023-07-16T07:37:36;20.10;64.40
25953;DHT22;13750;50.804;8.764;2023-07-16T07:40:02;20.10;63.90
25953;DHT22;13750;50.804;8.764;2023-07-16T07:42:28;20.20;63.40
25953;DHT22;13750;50.804;8.764;2023-07-16T07:44:54;20.20;63.20
25953;DHT22;13750;50.804;8.764;2023-07-16T07:47:20;20.30;62.30
25953;DHT22;13750;50.804;8.764;2023-07-16T07:49:46;20.30;61.70
25953;DHT22;13750;50.804;8.764;2023-07-16T07:52:11;20.40;61.10
25953;DHT22;13750;50.804;8.764;2023-07-16T07:54:37;20.40;60.80
25953;DHT22;13750;50.804;8.764;2023-07-16T07:57:04;20.40;60.80
25953;DHT22;13750;50.804;8.764;2023-07-16T07:59:30;20.50;60.40
25953;DHT22;13750;50.804;8.764;2023-07-16T08:01:56;20.60;60.20
25953;DHT22;13750;50.804;8.764;2023-07-16T08:04:21;20.60;59.90
25953;DHT22;13750;50.804;8.764;2023-07-16T08:06:49;20.70;59.70
25953;DHT22;13750;50.804;8.764;2023-07-16T08:09:14;20.70;59.40
25953;DHT22;13750;50.804;8.764;2023-07-16T08:11:40;20.70;58.90
25953;DHT22;13750;50.804;8.764;2023-07-16T08:14:05;20.70;58.80
25953;DHT22;13750;50.804;8.764;2023-07-16T08:16:31;20.80;58.70
25953;DHT22;13750;50.804;8.764;2023-07-16T08:18:56;20.90;57.70
25953;DHT22;13750;50.804;8.764;2023-07-16T08:21:22;20.90;57.20
25953;DHT22;13750;50.804;8.764;2023-07-16T08:23:49;20.90;56.00
25953;DHT22;13750;50.804;8.764;2023-07-16T08:26:15;20.80;54.80
25953;DHT22;13750;50.804;8.764;2023-07-16T08:28:41;20.80;55.60
25953;DHT22;13750;50.804;8.764;2023-07-16T08:31:07;20.80;54.90
25953;DHT22;13750;50.804;8.764;2023-07-16T08:33:32;20.80;55.20
25953;DHT22;13750;50.804;8.764;2023-07-16T08:35:58;20.90;55.10
25953;DHT22;13750;50.804;8.764;2023-07-16T08:38:23;20.90;56.00
25953;DHT22;13750;50.804;8.764;2023-07-16T08:40:49;21.00;55.00
25953;DHT22;13750;50.804;8.764;2023-07-16T08:43:16;21.00;54.40
25953;DHT22;13750;50.804;8.764;2023-07-16T08:45:41;21.00;54.80
25953;DHT22;13750;50.804;8.764;2023-07-16T08:48:11;21.10;54.80
25953;DHT22;13750;50.804;8.764;2023-07-16T08:50:37;21.10;54.00
25953;DHT22;13750;50.804;8.764;2023-07-16T08:53:06;21.10;54.60
25953;DHT22;13750;50.804;8.764;2023-07-16T08:55:33;21.20;54.70
25953;DHT22;13750;50.804;8.764;2023-07-16T08:58:01;21.30;54.50
25953;DHT22;13750;50.804;8.764;2023-07-16T09:00:27;21.30;53.80
25953;DHT22;13750;50.804;8.764;2023-07-16T09:02:53;21.40;53.40
25953;DHT22;13750;50.804;8.764;2023-07-16T09:05:22;21.40;53.70
25953;DHT22;13750;50.804;8.764;2023-07-16T09:07:49;21.50;53.40
25953;DHT22;13750;50.804;8.764;2023-07-16T09:10:15;21.50;53.40
25953;DHT22;13750;50.804;8.764;2023-07-16T09:12:44;21.60;53.50
25953;DHT22;13750;50.804;8.764;2023-07-16T09:15:17;21.60;53.50
25953;DHT22;13750;50.804;8.764;2023-07-16T09:17:46;21.60;53.30
25953;DHT22;13750;50.804;8.764;2023-07-16T09:20:15;21.60;52.60
25953;DHT22;13750;50.804;8.764;2023-07-16T09:22:41;21.60;52.30
25953;DHT22;13750;50.804;8.764;2023-07-16T09:25:07;21.60;52.00
25953;DHT22;13750;50.804;8.764;2023-07-16T09:27:32;21.70;51.90
25953;DHT22;13750;50.804;8.764;2023-07-16T09:29:58;21.70;51.20
25953;DHT22;13750;50.804;8.764;2023-07-16T09:32:34;21.70;51.20
25953;DHT22;13750;50.804;8.764;2023-07-16T09:35:00;21.70;51.50
25953;DHT22;13750;50.804;8.764;2023-07-16T09:37:26;21.70;50.70
25953;DHT22;13750;50.804;8.764;2023-07-16T09:39:53;21.60;50.30
25953;DHT22;13750;50.804;8.764;2023-07-16T09:42:19;21.60;48.40
25953;DHT22;13750;50.804;8.764;2023-07-16T09:44:46;21.60;48.80
25953;DHT22;13750;50.804;8.764;2023-07-16T09:47:12;21.60;48.90
25953;DHT22;13750;50.804;8.764;2023-07-16T09:49:38;21.60;49.30
25953;DHT22;13750;50.804;8.764;2023-07-16T09:52:04;21.70;49.50
25953;DHT22;13750;50.804;8.764;2023-07-16T09:54:32;21.70;49.50
25953;DHT22;13750;50.804;8.764;2023-07-16T09:56:59;21.80;49.60
25953;DHT22;13750;50.804;8.764;2023-07-16T09:59:30;21.80;48.40
25953;DHT22;13750;50.804;8.764;2023-07-16T10:01:57;21.90;49.10
25953;DHT22;13750;50.804;8.764;2023-07-16T10:04:23;21.90;49.60
25953;DHT22;13750;50.804;8.764;2023-07-16T10:06:57;21.90;49.10
25953;DHT22;13750;50.804;8.764;2023-07-16T10:09:33;22.00;48.60
25953;DHT22;13750;50.804;8.764;2023-07-16T10:12:11;22.10;48.80
25953;DHT22;13750;50.804;8.764;2023-07-16T10:14:45;22.10;48.80
25953;DHT22;13750;50.804;8.764;2023-07-16T10:17:21;22.10;48.40
25953;DHT22;13750;50.804;8.764;2023-07-16T10:22:41;22.10;48.00
25953;DHT22;13750;50.804;8.764;2023-07-16T10:25:29;22.20;47.30
25953;DHT22;13750;50.804;8.764;2023-07-16T10:27:55;22.20;47.20
25953;DHT22;13750;50.804;8.764;2023-07-16T10:30:21;22.20;47.20
25953;DHT22;13750;50.804;8.764;2023-07-16T10:32:46;22.20;46.80
25953;DHT22;13750;50.804;8.764;2023-07-16T10:35:12;22.20;46.70
25953;DHT22;13750;50.804;8.764;2023-07-16T10:37:39;22.30;46.70
25953;DHT22;13750;50.804;8.764;2023-07-16T10:40:05;22.30;46.80
25953;DHT22;13750;50.804;8.764;2023-07-16T10:42:34;22.40;46.80
25953;DHT22;13750;50.804;8.764;2023-07-16T10:45:02;22.50;46.70
25953;DHT22;13750;50.804;8.764;2023-07-16T10:47:36;22.50;46.40
25953;DHT22;13750;50.804;8.764;2023-07-16T10:50:07;22.50;46.50
25953;DHT22;13750;50.804;8.764;2023-07-16T10:52:34;22.60;46.30
25953;DHT22;13750;50.804;8.764;2023-07-16T10:54:59;22.60;45.70
25953;DHT22;13750;50.804;8.764;2023-07-16T10:57:26;22.70;45.90
25953;DHT22;13750;50.804;8.764;2023-07-16T10:59:52;22.70;44.80
25953;DHT22;13750;50.804;8.764;2023-07-16T11:02:20;22.70;44.10
25953;DHT22;13750;50.804;8.764;2023-07-16T11:04:46;22.60;44.30
25953;DHT22;13750;50.804;8.764;2023-07-16T11:07:13;22.60;44.90
25953;DHT22;13750;50.804;8.764;2023-07-16T11:09:49;22.70;45.30
25953;DHT22;13750;50.804;8.764;2023-07-16T11:12:18;22.70;45.60
25953;DHT22;13750;50.804;8.764;2023-07-16T11:14:49;22.70;45.40
25953;DHT22;13750;50.804;8.764;2023-07-16T11:17:15;22.80;45.50
25953;DHT22;13750;50.804;8.764;2023-07-16T11:19:44;22.80;44.00
25953;DHT22;13750;50.804;8.764;2023-07-16T11:22:10;22.90;44.60
25953;DHT22;13750;50.804;8.764;2023-07-16T11:24:40;22.90;44.70
25953;DHT22;13750;50.804;8.764;2023-07-16T11:27:22;22.90;44.00
25953;DHT22;13750;50.804;8.764;2023-07-16T11:29:50;23.00;43.60
25953;DHT22;13750;50.804;8.764;2023-07-16T11:32:32;23.00;43.50
25953;DHT22;13750;50.804;8.764;2023-07-16T11:34:59;23.00;43.70
25953;DHT22;13750;50.804;8.764;2023-07-16T11:37:25;23.10;43.60
25953;DHT22;13750;50.804;8.764;2023-07-16T11:39:58;23.10;43.70
25953;DHT22;13750;50.804;8.764;2023-07-16T11:42:28;23.10;43.60
25953;DHT22;13750;50.804;8.764;2023-07-16T11:44:54;23.10;44.10
25953;DHT22;13750;50.804;8.764;2023-07-16T11:47:20;23.10;43.70
25953;DHT22;13750;50.804;8.764;2023-07-16T11:49:46;23.10;42.70
25953;DHT22;13750;50.804;8.764;2023-07-16T11:52:11;23.20;43.00
25953;DHT22;13750;50.804;8.764;2023-07-16T11:54:37;23.20;42.60
25953;DHT22;13750;50.804;8.764;2023-07-16T11:57:03;23.30;42.40
25953;DHT22;13750;50.804;8.764;2023-07-16T11:59:29;23.30;42.60
25953;DHT22;13750;50.804;8.764;2023-07-16T12:01:54;23.30;42.90
25953;DHT22;13750;50.804;8.764;2023-07-16T12:04:20;23.30;43.10
25953;DHT22;13750;50.804;8.764;2023-07-16T12:06:46;23.40;43.30
25953;DHT22;13750;50.804;8.764;2023-07-16T12:09:12;23.50;43.10
25953;DHT22;13750;50.804;8.764;2023-07-16T12:11:37;23.50;42.10
25953;DHT22;13750;50.804;8.764;2023-07-16T12:14:04;23.50;42.30
25953;DHT22;13750;50.804;8.764;2023-07-16T12:16:30;23.50;42.70
25953;DHT22;13750;50.804;8.764;2023-07-16T12:18:55;23.50;42.50
25953;DHT22;13750;50.804;8.764;2023-07-16T12:21:21;23.50;42.60
25953;DHT22;13750;50.804;8.764;2023-07-16T12:23:46;23.60;42.50
25953;DHT22;13750;50.804;8.764;2023-07-16T12:26:13;23.60;42.40
25953;DHT22;13750;50.804;8.764;2023-07-16T12:28:39;23.70;42.50
25953;DHT22;13750;50.804;8.764;2023-07-16T12:31:04;23.70;42.10
25953;DHT22;13750;50.804;8.764;2023-07-16T12:33:30;23.80;41.10
25953;DHT22;13750;50.804;8.764;2023-07-16T12:36:01;23.80;41.10
25953;DHT22;13750;50.804;8.764;2023-07-16T12:38:27;23.80;40.60
25953;DHT22;13750;50.804;8.764;2023-07-16T12:40:52;23.90;40.40
25953;DHT22;13750;50.804;8.764;2023-07-16T12:43:18;23.90;40.10
25953;DHT22;13750;50.804;8.764;2023-07-16T12:45:43;23.90;40.50
25953;DHT22;13750;50.804;8.764;2023-07-16T12:48:09;23.90;40.80
25953;DHT22;13750;50.804;8.764;2023-07-16T12:50:34;23.80;40.70
25953;DHT22;13750;50.804;8.764;2023-07-16T12:53:00;23.90;40.30
25953;DHT22;13750;50.804;8.764;2023-07-16T12:55:25;23.90;40.40
25953;DHT22;13750;50.804;8.764;2023-07-16T12:57:51;23.90;40.90
25953;DHT22;13750;50.804;8.764;2023-07-16T13:00:17;24.00;41.60
25953;DHT22;13750;50.804;8.764;2023-07-16T13:02:42;24.00;41.10
25953;DHT22;13750;50.804;8.764;2023-07-16T13:05:08;24.00;39.90
25953;DHT22;13750;50.804;8.764;2023-07-16T13:07:33;24.10;39.60
25953;DHT22;13750;50.804;8.764;2023-07-16T13:09:59;24.10;39.10
25953;DHT22;13750;50.804;8.764;2023-07-16T13:12:25;24.10;39.80
25953;DHT22;13750;50.804;8.764;2023-07-16T13:14:50;24.10;40.10
25953;DHT22;13750;50.804;8.764;2023-07-16T13:17:16;24.20;40.90
25953;DHT22;13750;50.804;8.764;2023-07-16T13:19:43;24.20;39.90
25953;DHT22;13750;50.804;8.764;2023-07-16T13:22:09;24.30;38.90
25953;DHT22;13750;50.804;8.764;2023-07-16T13:24:34;24.30;39.40
25953;DHT22;13750;50.804;8.764;2023-07-16T13:27:00;24.30;39.70
25953;DHT22;13750;50.804;8.764;2023-07-16T13:29:25;24.30;39.80
25953;DHT22;13750;50.804;8.764;2023-07-16T13:31:51;24.30;39.70
25953;DHT22;13750;50.804;8.764;2023-07-16T13:34:16;24.40;39.70
25953;DHT22;13750;50.804;8.764;2023-07-16T13:36:42;24.50;40.20
25953;DHT22;13750;50.804;8.764;2023-07-16T13:39:07;24.60;40.10
25953;DHT22;13750;50.804;8.764;2023-07-16T13:41:33;24.60;39.10
25953;DHT22;13750;50.804;8.764;2023-07-16T13:43:59;24.60;39.40
25953;DHT22;13750;50.804;8.764;2023-07-16T13:46:24;24.60;39.90
25953;DHT22;13750;50.804;8.764;2023-07-16T13:48:50;24.70;40.00
25953;DHT22;13750;50.804;8.764;2023-07-16T13:51:15;24.70;40.30
25953;DHT22;13750;50.804;8.764;2023-07-16T13:53:41;24.80;40.00
25953;DHT22;13750;50.804;8.764;2023-07-16T13:56:07;24.80;40.30
25953;DHT22;13750;50.804;8.764;2023-07-16T13:58:33;24.80;40.90
25953;DHT22;13750;50.804;8.764;2023-07-16T14:00:59;24.90;40.80
25953;DHT22;13750;50.804;8.764;2023-07-16T14:03:24;24.90;40.20
25953;DHT22;13750;50.804;8.764;2023-07-16T14:05:51;24.90;40.00
25953;DHT22;13750;50.804;8.764;2023-07-16T14:08:16;24.80;40.00
25953;DHT22;13750;50.804;8.764;2023-07-16T14:10:42;24.80;39.90
25953;DHT22;13750;50.804;8.764;2023-07-16T14:13:08;24.80;40.20
25953;DHT22;13750;50.804;8.764;2023-07-16T14:15:33;24.80;40.40
25953;DHT22;13750;50.804;8.764;2023-07-16T14:17:59;24.80;40.50
25953;DHT22;13750;50.804;8.764;2023-07-16T14:20:24;24.80;39.80
25953;DHT22;13750;50.804;8.764;2023-07-16T14:22:50;24.80;39.20
25953;DHT22;13750;50.804;8.764;2023-07-16T14:25:15;24.80;39.50
25953;DHT22;13750;50.804;8.764;2023-07-16T14:27:41;24.80;39.70
25953;DHT22;13750;50.804;8.764;2023-07-16T14:30:07;24.80;39.70
25953;DHT22;13750;50.804;8.764;2023-07-16T14:32:34;24.70;39.80
25953;DHT22;13750;50.804;8.764;2023-07-16T14:35:00;24.70;39.80
25953;DHT22;13750;50.804;8.764;2023-07-16T14:37:26;24.60;39.90
25953;DHT22;13750;50.804;8.764;2023-07-16T14:39:51;24.60;39.90
25953;DHT22;13750;50.804;8.764;2023-07-16T14:42:17;24.60;40.00
25953;DHT22;13750;50.804;8.764;2023-07-16T14:44:43;24.60;40.10
25953;DHT22;13750;50.804;8.764;2023-07-16T14:47:08;24.70;40.00
25953;DHT22;13750;50.804;8.764;2023-07-16T14:49:34;24.70;39.30
25953;DHT22;13750;50.804;8.764;2023-07-16T14:52:00;24.60;39.30
25953;DHT22;13750;50.804;8.764;2023-07-16T14:54:25;24.60;39.30
25953;DHT22;13750;50.804;8.764;2023-07-16T14:56:51;24.60;39.20
25953;DHT22;13750;50.804;8.764;2023-07-16T14:59:16;24.70;39.30
25953;DHT22;13750;50.804;8.764;2023-07-16T15:01:43;24.80;39.30
25953;DHT22;13750;50.804;8.764;2023-07-16T15:04:08;24.70;38.60
25953;DHT22;13750;50.804;8.764;2023-07-16T15:06:34;24.70;38.50
25953;DHT22;13750;50.804;8.764;2023-07-16T15:08:59;24.60;38.80
25953;DHT22;13750;50.804;8.764;2023-07-16T15:11:25;24.60;39.00
25953;DHT22;13750;50.804;8.764;2023-07-16T15:13:51;24.70;38.80
25953;DHT22;13750;50.804;8.764;2023-07-16T15:16:16;24.70;38.70
25953;DHT22;13750;50.804;8.764;2023-07-16T15:18:42;24.70;39.00
25953;DHT22;13750;50.804;8.764;2023-07-16T15:21:08;24.70;38.80
25953;DHT22;13750;50.804;8.764;2023-07-16T15:23:34;24.60;38.00
25953;DHT22;13750;50.804;8.764;2023-07-16T15:26:04;24.60;38.10
25953;DHT22;13750;50.804;8.764;2023-07-16T15:28:32;24.70;38.60
25953;DHT22;13750;50.804;8.764;2023-07-16T15:31:00;24.70;38.80
25953;DHT22;13750;50.804;8.764;2023-07-16T15:33:26;24.80;38.30
25953;DHT22;13750;50.804;8.764;2023-07-16T15:35:51;24.90;37.90
25953;DHT22;13750;50.804;8.764;2023-07-16T15:38:17;24.90;38.10